Time;durP1;ratioP1;P1;durP2;ratioP2;P2;SDS_P1;SDS_P2;PMS_P1;PMS_P2;Temp;Humidity;BMP_temperature;BMP_pressure;BME280_temperature;BME280_humidity;BME280_pressure;Samples;Min_cycle;Max_cycle;Signal;HPM_P1;HPM_P2
2022/04/09 00:01:16;;;;;;;2.88;2.00;;;5.80;99.90;;;;;;5006206;28;20049;-57
2022/04/09 00:03:43;;;;;;;6.63;2.13;;;5.80;99.90;;;;;;5005680;28;20073;-55
2022/04/09 00:06:10;;;;;;;3.67;2.30;;;5.80;99.90;;;;;;5006017;28;20587;-56
2022/04/09 00:08:36;;;;;;;5.63;2.03;;;5.70;99.90;;;;;;5006272;28;20563;-55
2022/04/09 00:11:03;;;;;;;1.90;1.63;;;5.70;99.90;;;;;;5004314;28;20072;-55
2022/04/09 00:13:30;;;;;;;2.58;1.60;;;5.60;99.90;;;;;;5006753;28;20147;-55
2022/04/09 00:15:57;;;;;;;2.13;1.80;;;5.70;99.90;;;;;;5008569;28;20045;-55
2022/04/09 00:18:24;;;;;;;3.38;1.55;;;5.70;99.90;;;;;;5008230;28;20088;-54
2022/04/09 00:20:50;;;;;;;2.60;1.70;;;5.70;99.90;;;;;;5009902;28;20041;-55
2022/04/09 00:23:18;;;;;;;7.07;1.90;;;5.70;99.90;;;;;;4985709;28;20456;-57
2022/04/09 00:25:46;;;;;;;2.88;1.98;;;5.70;99.90;;;;;;5008013;28;20551;-56
2022/04/09 00:28:13;;;;;;;2.47;1.70;;;5.60;99.90;;;;;;5009495;28;20058;-58
2022/04/09 00:30:39;;;;;;;5.93;2.67;;;5.70;99.90;;;;;;5009712;28;20485;-56
2022/04/09 00:33:06;;;;;;;2.40;1.95;;;5.70;99.90;;;;;;5009054;28;20133;-56
2022/04/09 00:35:33;;;;;;;4.43;2.33;;;5.70;99.90;;;;;;5010331;28;20057;-54
2022/04/09 00:38:00;;;;;;;4.15;1.92;;;5.70;99.90;;;;;;5010814;28;20092;-56
2022/04/09 00:40:27;;;;;;;4.40;1.92;;;5.70;99.90;;;;;;5010423;28;20124;-57
2022/04/09 00:42:54;;;;;;;5.25;2.05;;;5.80;99.90;;;;;;5008859;28;20042;-56
2022/04/09 00:45:20;;;;;;;3.85;2.17;;;5.70;99.90;;;;;;4992429;28;20137;-56
2022/04/09 00:47:47;;;;;;;6.75;1.95;;;5.80;99.90;;;;;;5009578;28;20050;-56
2022/04/09 00:50:14;;;;;;;4.53;2.10;;;5.70;99.90;;;;;;4992562;28;20104;-56
2022/04/09 00:52:48;;;;;;;4.65;2.15;;;5.60;99.90;;;;;;5009833;28;20085;-56
2022/04/09 00:55:18;;;;;;;3.45;1.90;;;5.60;99.90;;;;;;5013974;28;20049;-54
2022/04/09 00:57:45;;;;;;;5.80;2.60;;;5.60;99.90;;;;;;5017919;28;20530;-57
2022/04/09 01:00:12;;;;;;;3.40;2.28;;;5.60;99.90;;;;;;4992726;28;20084;-55
2022/04/09 01:02:41;;;;;;;5.30;2.42;;;5.60;99.90;;;;;;5009324;28;20568;-56
2022/04/09 01:05:08;;;;;;;3.75;2.08;;;5.50;99.90;;;;;;5010383;28;20057;-58
2022/04/09 01:07:35;;;;;;;2.67;2.00;;;5.50;99.90;;;;;;4991085;28;20081;-56
2022/04/09 01:10:02;;;;;;;3.13;2.15;;;5.50;99.90;;;;;;5011112;28;20050;-61
2022/04/09 01:12:29;;;;;;;4.15;2.60;;;5.50;99.90;;;;;;4989634;28;20080;-59
2022/04/09 01:14:56;;;;;;;4.25;2.50;;;5.50;99.90;;;;;;4995814;28;20137;-55
2022/04/09 01:17:23;;;;;;;2.83;2.05;;;5.50;99.90;;;;;;4644657;28;10000182;-55
2022/04/09 01:19:49;;;;;;;3.78;2.05;;;5.50;99.90;;;;;;5008567;28;20527;-55
2022/04/09 01:22:16;;;;;;;3.38;2.20;;;5.50;99.90;;;;;;5009430;28;20675;-55
2022/04/09 01:24:43;;;;;;;2.90;2.33;;;5.50;99.90;;;;;;5009605;28;20052;-55
2022/04/09 01:27:11;;;;;;;4.18;2.53;;;5.50;99.90;;;;;;5009892;28;20054;-55
2022/04/09 01:29:38;;;;;;;4.20;3.20;;;5.50;99.90;;;;;;5009770;28;20596;-54
2022/04/09 01:32:05;;;;;;;4.03;2.47;;;5.50;99.90;;;;;;4992850;28;20128;-56
2022/04/09 01:34:32;;;;;;;3.15;2.25;;;5.50;99.90;;;;;;5010188;28;20057;-54
2022/04/09 01:36:59;;;;;;;2.90;2.50;;;5.50;99.90;;;;;;4973013;28;20072;-52
2022/04/09 01:39:26;;;;;;;4.47;2.90;;;5.50;99.90;;;;;;5003372;28;20049;-55
2022/04/09 01:41:52;;;;;;;3.15;2.47;;;5.50;99.90;;;;;;5009052;28;20129;-51
2022/04/09 01:44:20;;;;;;;2.80;2.33;;;5.40;99.90;;;;;;5007959;28;20104;-50
2022/04/09 01:46:46;;;;;;;6.68;3.10;;;5.40;99.90;;;;;;5008912;28;20076;-56
2022/04/09 01:49:13;;;;;;;3.97;2.83;;;5.30;99.90;;;;;;5008457;28;20042;-56
2022/04/09 01:51:40;;;;;;;4.32;2.83;;;5.30;99.90;;;;;;5008198;28;20176;-56
2022/04/09 01:54:07;;;;;;;6.13;3.25;;;5.20;99.90;;;;;;5008417;28;20310;-54
2022/04/09 01:56:34;;;;;;;3.85;2.60;;;5.20;99.90;;;;;;5011689;28;20096;-51
2022/04/09 01:59:00;;;;;;;3.92;2.60;;;5.10;99.90;;;;;;5008885;28;20472;-56
2022/04/09 02:01:27;;;;;;;4.40;3.35;;;5.10;99.90;;;;;;5008809;28;20137;-54
2022/04/09 02:03:54;;;;;;;3.38;2.63;;;5.10;99.90;;;;;;5007847;28;20057;-53
2022/04/09 02:06:21;;;;;;;4.72;2.95;;;5.10;99.90;;;;;;5008585;28;20133;-53
2022/04/09 02:08:48;;;;;;;4.28;3.05;;;5.10;99.90;;;;;;5008641;28;20108;-54
2022/04/09 02:11:15;;;;;;;4.38;3.28;;;5.10;99.90;;;;;;5007494;28;20116;-55
2022/04/09 02:13:42;;;;;;;6.47;3.28;;;5.00;99.90;;;;;;5008681;28;20092;-54
2022/04/09 02:16:08;;;;;;;5.20;3.50;;;4.90;99.90;;;;;;5008426;28;20050;-52
2022/04/09 02:18:35;;;;;;;4.15;3.30;;;4.90;99.90;;;;;;4991644;28;20053;-53
2022/04/09 02:21:02;;;;;;;5.55;3.85;;;4.90;99.90;;;;;;4979598;28;20114;-52
2022/04/09 02:23:29;;;;;;;5.97;3.85;;;4.80;99.90;;;;;;5007523;28;20089;-55
2022/04/09 02:25:56;;;;;;;5.80;3.63;;;4.70;99.90;;;;;;5008274;28;20517;-55
2022/04/09 02:28:23;;;;;;;5.75;4.07;;;4.70;99.90;;;;;;5008370;28;20053;-56
2022/04/09 02:30:49;;;;;;;8.60;3.90;;;4.70;99.90;;;;;;5008143;28;20123;-53
2022/04/09 02:33:16;;;;;;;8.75;3.30;;;4.60;99.90;;;;;;5008289;28;20048;-53
2022/04/09 02:35:43;;;;;;;8.35;3.28;;;4.60;99.90;;;;;;5008255;28;20787;-56
2022/04/09 02:38:10;;;;;;;5.32;3.75;;;4.70;99.90;;;;;;5007722;28;20556;-54
2022/04/09 02:40:38;;;;;;;5.03;3.63;;;4.70;99.90;;;;;;5008161;28;20054;-54
2022/04/09 02:43:06;;;;;;;6.72;4.07;;;4.70;99.90;;;;;;5008132;28;20074;-55
2022/04/09 02:45:33;;;;;;;5.47;3.95;;;4.70;99.90;;;;;;5008118;28;20511;-55
2022/04/09 02:48:00;;;;;;;6.05;4.20;;;4.70;99.90;;;;;;5007948;28;20137;-55
2022/04/09 02:50:26;;;;;;;6.05;3.90;;;4.60;99.90;;;;;;5008293;28;20145;-55
2022/04/09 02:52:53;;;;;;;4.90;3.45;;;4.80;99.90;;;;;;5007939;28;20128;-55
2022/04/09 02:55:20;;;;;;;4.95;3.78;;;4.70;99.90;;;;;;5010786;28;20128;-52
2022/04/09 02:57:47;;;;;;;7.30;5.00;;;4.70;99.90;;;;;;5015459;28;20083;-53
2022/04/09 03:00:14;;;;;;;8.23;5.40;;;4.60;99.90;;;;;;5028066;28;20045;-54
2022/04/09 03:02:41;;;;;;;7.25;3.92;;;4.60;99.90;;;;;;4992018;28;20132;-52
2022/04/09 03:05:09;;;;;;;5.65;3.95;;;4.80;99.90;;;;;;5007954;28;20049;-55
2022/04/09 03:07:36;;;;;;;5.95;4.30;;;4.60;99.90;;;;;;4986883;28;20090;-55
2022/04/09 03:10:03;;;;;;;5.38;4.05;;;4.50;99.90;;;;;;5008094;28;20129;-55
2022/04/09 03:12:29;;;;;;;8.70;5.60;;;4.50;99.90;;;;;;5007652;28;20104;-56
2022/04/09 03:14:56;;;;;;;5.60;4.28;;;4.40;99.90;;;;;;5007609;28;20089;-55
2022/04/09 03:17:23;;;;;;;5.55;3.95;;;4.40;99.90;;;;;;5007283;28;20124;-55
2022/04/09 03:19:50;;;;;;;8.93;3.97;;;4.40;99.90;;;;;;5007746;28;20045;-54
2022/04/09 03:22:16;;;;;;;6.75;4.70;;;4.40;99.90;;;;;;5007287;28;20140;-55
2022/04/09 03:24:43;;;;;;;5.93;4.05;;;4.30;99.90;;;;;;5007469;28;20555;-52
2022/04/09 03:27:10;;;;;;;6.90;5.05;;;4.20;99.90;;;;;;5018337;28;20056;-53
2022/04/09 03:29:37;;;;;;;7.60;5.32;;;4.20;99.90;;;;;;5007543;28;20161;-55
2022/04/09 03:32:04;;;;;;;6.18;4.75;;;4.10;99.90;;;;;;5006954;28;20089;-55
2022/04/09 03:34:31;;;;;;;6.80;5.05;;;4.10;99.90;;;;;;5007178;28;20096;-54
2022/04/09 03:36:57;;;;;;;8.77;4.40;;;4.10;99.90;;;;;;5007010;28;20054;-54
2022/04/09 03:39:24;;;;;;;8.30;5.00;;;4.00;99.90;;;;;;5007654;28;20140;-53
2022/04/09 03:41:51;;;;;;;9.20;5.78;;;4.10;99.90;;;;;;5007209;28;20100;-54
2022/04/09 03:44:38;;;;;;;6.72;5.13;;;4.00;99.90;;;;;;5004905;28;20060;-55
2022/04/09 03:47:08;;;;;;;6.47;4.47;;;4.00;99.90;;;;;;5006174;28;20137;-55
2022/04/09 03:49:34;;;;;;;7.45;5.05;;;4.10;99.90;;;;;;4980163;28;20127;-54
2022/04/09 03:52:01;;;;;;;6.03;4.75;;;4.10;99.90;;;;;;4991218;28;20047;-54
2022/04/09 03:54:30;;;;;;;6.60;5.18;;;4.10;99.90;;;;;;4992597;28;20592;-55
2022/04/09 03:56:57;;;;;;;5.97;4.78;;;4.00;99.90;;;;;;5003205;28;20081;-57
2022/04/09 03:59:24;;;;;;;9.10;4.72;;;4.00;99.90;;;;;;5010871;28;20136;-55
2022/04/09 04:01:50;;;;;;;8.02;5.13;;;4.00;99.90;;;;;;5011279;28;20568;-55
2022/04/09 04:04:18;;;;;;;8.27;5.13;;;3.80;99.90;;;;;;5008170;28;20253;-55
2022/04/09 04:06:45;;;;;;;9.55;5.28;;;3.70;99.90;;;;;;5011163;28;20085;-55
2022/04/09 04:09:14;;;;;;;7.10;4.68;;;3.70;99.90;;;;;;5011083;28;20152;-54
2022/04/09 04:11:40;;;;;;;7.47;5.20;;;3.60;99.90;;;;;;5010940;28;20088;-53
2022/04/09 04:14:07;;;;;;;9.68;5.60;;;3.70;99.90;;;;;;5010591;28;20132;-52
2022/04/09 04:16:34;;;;;;;8.10;4.45;;;3.60;99.90;;;;;;5010818;28;20085;-53
2022/04/09 04:19:01;;;;;;;8.02;5.28;;;3.70;99.90;;;;;;5010336;28;20129;-54
2022/04/09 04:21:28;;;;;;;8.50;4.82;;;3.50;99.90;;;;;;5010776;28;20085;-53
2022/04/09 04:23:54;;;;;;;11.98;5.20;;;3.60;99.90;;;;;;5010240;28;20088;-51
2022/04/09 04:26:21;;;;;;;9.93;5.20;;;3.50;99.90;;;;;;4994785;28;20140;-55
2022/04/09 04:28:51;;;;;;;8.48;4.80;;;3.60;99.90;;;;;;5010184;28;20661;-54
2022/04/09 04:31:18;;;;;;;7.25;5.25;;;3.50;99.90;;;;;;5010661;28;20041;-55
2022/04/09 04:33:45;;;;;;;7.00;4.72;;;3.60;99.90;;;;;;5010356;28;20053;-55
2022/04/09 04:36:12;;;;;;;8.60;5.72;;;3.50;99.90;;;;;;5006940;28;20100;-54
2022/04/09 04:38:39;;;;;;;7.47;5.50;;;3.50;99.90;;;;;;5010295;28;20085;-49
2022/04/09 04:41:06;;;;;;;8.65;5.65;;;3.80;99.90;;;;;;5010071;28;20089;-51
2022/04/09 04:43:33;;;;;;;8.77;6.28;;;3.50;99.90;;;;;;5009646;28;20101;-53
2022/04/09 04:45:59;;;;;;;10.68;5.80;;;3.50;99.90;;;;;;5009667;28;20082;-52
2022/04/09 04:48:26;;;;;;;7.35;5.05;;;3.50;99.90;;;;;;5009947;28;20061;-53
2022/04/09 04:50:53;;;;;;;11.65;6.40;;;3.50;99.90;;;;;;5010207;28;20046;-55
2022/04/09 04:53:20;;;;;;;7.53;5.60;;;3.50;99.90;;;;;;5010092;28;20717;-55
2022/04/09 04:55:47;;;;;;;9.70;6.28;;;3.50;99.90;;;;;;5016109;28;20041;-53
2022/04/09 04:58:18;;;;;;;9.32;6.75;;;3.50;99.90;;;;;;5013808;28;20460;-55
2022/04/09 05:00:45;;;;;;;11.18;6.78;;;3.50;99.90;;;;;;5010000;28;20080;-55
2022/04/09 05:03:12;;;;;;;10.82;7.53;;;3.40;99.90;;;;;;5009562;28;20050;-52
2022/04/09 05:05:38;;;;;;;16.55;8.52;;;3.40;99.90;;;;;;5009746;28;20088;-52
2022/04/09 05:08:05;;;;;;;11.88;7.45;;;3.40;99.90;;;;;;5010098;28;20104;-52
2022/04/09 05:10:32;;;;;;;9.07;6.63;;;3.40;99.90;;;;;;5009438;28;20054;-51
2022/04/09 05:12:59;;;;;;;10.55;7.90;;;3.40;99.90;;;;;;5009538;28;20153;-54
2022/04/09 05:15:26;;;;;;;9.27;6.90;;;3.50;99.90;;;;;;5009576;28;20086;-54
2022/04/09 05:17:53;;;;;;;9.75;6.70;;;3.50;99.90;;;;;;5009814;28;20471;-57
2022/04/09 05:20:20;;;;;;;9.70;7.05;;;3.40;99.90;;;;;;5009561;28;20111;-51
2022/04/09 05:22:47;;;;;;;11.38;7.25;;;3.40;99.90;;;;;;4996028;28;20363;-54
2022/04/09 05:25:20;;;;;;;11.10;7.63;;;3.40;99.90;;;;;;5010954;28;20050;-51
2022/04/09 05:27:49;;;;;;;12.85;7.40;;;3.40;99.90;;;;;;5010598;28;20058;-55
2022/04/09 05:30:16;;;;;;;16.85;8.32;;;3.50;99.90;;;;;;5009424;28;20054;-54
2022/04/09 05:32:43;;;;;;;9.00;7.00;;;3.40;99.90;;;;;;5008936;28;20101;-56
2022/04/09 05:35:10;;;;;;;12.60;8.40;;;3.40;99.90;;;;;;5009581;28;20402;-55
2022/04/09 05:37:37;;;;;;;11.07;7.22;;;3.30;99.90;;;;;;5009025;28;20053;-56
2022/04/09 05:40:05;;;;;;;9.55;7.35;;;3.30;99.90;;;;;;5009362;28;20042;-53
2022/04/09 05:42:32;;;;;;;9.32;7.78;;;3.30;99.90;;;;;;5009073;28;20057;-57
2022/04/09 05:44:59;;;;;;;11.75;8.40;;;3.30;99.90;;;;;;5009173;28;20080;-54
2022/04/09 05:47:26;;;;;;;11.15;8.30;;;3.30;99.90;;;;;;5008557;28;20652;-54
2022/04/09 05:49:53;;;;;;;11.48;8.18;;;3.20;99.90;;;;;;5009136;28;20053;-54
2022/04/09 05:52:20;;;;;;;11.45;7.72;;;3.20;99.90;;;;;;5008193;28;20042;-54
2022/04/09 05:54:46;;;;;;;11.90;7.93;;;3.30;99.90;;;;;;5009549;28;20145;-56
2022/04/09 05:57:13;;;;;;;10.95;7.93;;;3.30;99.90;;;;;;5019470;28;20160;-60
2022/04/09 05:59:40;;;;;;;13.20;8.85;;;3.30;99.90;;;;;;5010028;28;20084;-55
2022/04/09 06:02:07;;;;;;;10.60;7.55;;;3.30;99.90;;;;;;4990916;28;20704;-56
2022/04/09 06:04:34;;;;;;;11.15;7.53;;;3.30;99.90;;;;;;5009696;28;20053;-55
2022/04/09 06:07:02;;;;;;;13.55;7.93;;;3.30;99.90;;;;;;5008824;28;20084;-54
2022/04/09 06:09:30;;;;;;;10.82;7.10;;;3.40;99.90;;;;;;5008767;28;20069;-56
2022/04/09 06:11:57;;;;;;;11.00;8.23;;;3.40;99.90;;;;;;5008478;28;20136;-52
2022/04/09 06:14:23;;;;;;;9.50;7.28;;;3.40;99.90;;;;;;5008136;28;20053;-53
2022/04/09 06:16:50;;;;;;;11.75;7.50;;;3.40;99.90;;;;;;5009052;28;20129;-58
2022/04/09 06:19:17;;;;;;;12.10;8.82;;;3.50;99.90;;;;;;5008627;28;20045;-56
2022/04/09 06:21:44;;;;;;;11.45;7.38;;;3.50;99.90;;;;;;5009570;28;20080;-57
2022/04/09 06:24:11;;;;;;;13.20;8.02;;;3.60;99.90;;;;;;5008886;28;20088;-53
2022/04/09 06:26:37;;;;;;;10.77;7.57;;;3.60;99.90;;;;;;5008894;28;20046;-56
2022/04/09 06:29:04;;;;;;;11.60;8.48;;;3.60;99.90;;;;;;5008287;28;20046;-55
2022/04/09 06:31:31;;;;;;;10.27;7.50;;;3.70;99.90;;;;;;5008383;28;20042;-54
2022/04/09 06:33:58;;;;;;;10.88;7.65;;;3.70;99.90;;;;;;5007341;28;20060;-53
2022/04/09 06:36:25;;;;;;;12.98;6.78;;;3.90;99.90;;;;;;5008418;28;20137;-55
2022/04/09 06:38:53;;;;;;;11.13;7.28;;;3.70;99.90;;;;;;5007895;28;20472;-56
2022/04/09 06:41:19;;;;;;;12.57;7.82;;;3.70;99.90;;;;;;5007956;28;20095;-54
2022/04/09 06:43:47;;;;;;;14.57;6.80;;;3.70;99.90;;;;;;5006600;28;20132;-55
2022/04/09 06:46:14;;;;;;;10.43;7.10;;;3.70;99.90;;;;;;4985152;28;20070;-55
2022/04/09 06:48:40;;;;;;;10.10;7.00;;;3.70;99.90;;;;;;5007235;28;20046;-56
2022/04/09 06:51:07;;;;;;;9.73;6.82;;;3.80;99.90;;;;;;5007654;28;20057;-54
2022/04/09 06:53:34;;;;;;;11.77;6.43;;;3.80;99.90;;;;;;5006297;28;20116;-49
2022/04/09 06:56:04;;;;;;;8.88;6.50;;;3.80;99.90;;;;;;4990085;28;20440;-53
2022/04/09 06:58:32;;;;;;;9.43;7.03;;;3.80;99.90;;;;;;4989607;28;20041;-55
2022/04/09 07:00:59;;;;;;;15.35;7.88;;;3.90;99.90;;;;;;4989532;28;20070;-55
2022/04/09 07:03:26;;;;;;;12.30;6.65;;;3.90;99.90;;;;;;5007023;28;20050;-56
2022/04/09 07:05:53;;;;;;;11.45;6.00;;;3.90;99.90;;;;;;5006100;28;20054;-56
2022/04/09 07:08:20;;;;;;;8.32;5.63;;;3.90;99.90;;;;;;5007396;28;20386;-56
2022/04/09 07:10:47;;;;;;;8.30;6.50;;;4.00;99.90;;;;;;5005627;28;20088;-55
2022/04/09 07:13:14;;;;;;;11.02;6.75;;;4.00;99.90;;;;;;5006636;28;20137;-55
2022/04/09 07:15:41;;;;;;;9.35;6.30;;;4.00;99.90;;;;;;5006290;28;20112;-54
2022/04/09 07:18:07;;;;;;;12.90;7.45;;;4.10;99.90;;;;;;5006266;28;20068;-56
2022/04/09 07:20:36;;;;;;;11.50;6.63;;;4.10;99.90;;;;;;5007087;28;20080;-54
2022/04/09 07:23:03;;;;;;;11.02;6.13;;;4.20;99.90;;;;;;5006690;28;21078;-56
2022/04/09 07:25:30;;;;;;;16.50;7.28;;;4.20;99.90;;;;;;5006256;28;20053;-55
2022/04/09 07:27:57;;;;;;;16.13;6.35;;;4.20;99.90;;;;;;5006740;28;20058;-56
2022/04/09 07:30:26;;;;;;;13.57;6.18;;;4.30;99.90;;;;;;5006388;28;20116;-56
2022/04/09 07:32:56;;;;;;;12.43;6.00;;;4.30;99.90;;;;;;4989601;28;20108;-55
2022/04/09 07:35:22;;;;;;;8.57;6.05;;;4.40;99.90;;;;;;4989496;28;20077;-60
2022/04/09 07:37:50;;;;;;;15.75;6.20;;;4.50;99.90;;;;;;5007272;28;20081;-52
2022/04/09 07:40:18;;;;;;;7.80;5.47;;;4.50;99.90;;;;;;5006941;28;20073;-56
2022/04/09 07:42:45;;;;;;;6.70;4.97;;;4.50;99.90;;;;;;5006831;28;20050;-56
2022/04/09 07:45:13;;;;;;;11.50;5.78;;;4.50;99.90;;;;;;5007068;28;20097;-54
2022/04/09 07:47:40;;;;;;;8.10;5.25;;;4.50;99.90;;;;;;5006766;28;20125;-54
2022/04/09 07:50:10;;;;;;;12.68;6.30;;;4.60;99.90;;;;;;5006641;28;20049;-53
2022/04/09 07:52:44;;;;;;;13.07;5.65;;;4.60;99.90;;;;;;4990521;28;20046;-57
2022/04/09 07:55:15;;;;;;;12.48;5.18;;;4.60;99.90;;;;;;4661254;28;10000406;-57
2022/04/09 07:57:45;;;;;;;8.77;4.60;;;4.80;99.90;;;;;;5003236;28;20072;-57
2022/04/09 08:00:13;;;;;;;16.17;6.30;;;4.90;99.90;;;;;;5004108;28;20050;-56
2022/04/09 08:02:40;;;;;;;11.82;6.50;;;4.90;99.90;;;;;;5003430;28;20054;-55
2022/04/09 08:05:10;;;;;;;9.75;6.30;;;4.90;99.90;;;;;;5004138;28;20085;-54
2022/04/09 08:07:38;;;;;;;11.48;6.13;;;4.90;99.90;;;;;;5002236;28;20081;-54
2022/04/09 08:10:05;;;;;;;8.23;5.13;;;5.00;99.90;;;;;;5003217;28;20050;-55
2022/04/09 08:12:32;;;;;;;9.70;5.53;;;5.00;99.90;;;;;;5002728;28;20216;-55
2022/04/09 08:14:59;;;;;;;10.77;6.10;;;5.00;99.90;;;;;;5003433;28;20045;-54
2022/04/09 08:17:26;;;;;;;12.75;5.45;;;5.20;99.90;;;;;;5002746;28;20092;-55
2022/04/09 08:19:53;;;;;;;13.60;5.13;;;5.30;99.90;;;;;;5002657;28;20136;-51
2022/04/09 08:22:21;;;;;;;10.77;4.78;;;5.50;99.90;;;;;;5003047;28;20685;-56
2022/04/09 08:24:47;;;;;;;11.98;4.88;;;5.60;99.90;;;;;;5003706;28;20569;-55
2022/04/09 08:27:14;;;;;;;13.40;4.30;;;5.70;99.90;;;;;;5014670;28;20146;-53
2022/04/09 08:29:41;;;;;;;9.68;4.10;;;5.80;99.90;;;;;;5003362;28;20085;-54
2022/04/09 08:32:08;;;;;;;9.00;4.50;;;5.80;99.90;;;;;;5002573;28;20038;-56
2022/04/09 08:34:35;;;;;;;11.63;4.53;;;5.70;99.90;;;;;;5002855;28;20089;-53
2022/04/09 08:37:02;;;;;;;8.63;4.32;;;5.90;99.90;;;;;;5004347;28;20139;-56
2022/04/09 08:39:30;;;;;;;15.80;4.28;;;5.90;99.90;;;;;;4989498;28;20536;-54
2022/04/09 08:41:58;;;;;;;11.60;4.35;;;6.10;99.90;;;;;;5006454;28;20053;-57
2022/04/09 08:44:25;;;;;;;13.60;4.38;;;6.20;99.90;;;;;;4988467;28;20108;-57
2022/04/09 08:46:53;;;;;;;12.55;3.33;;;6.30;99.90;;;;;;5006269;28;20089;-57
2022/04/09 08:49:22;;;;;;;10.68;3.45;;;6.40;99.90;;;;;;4987461;28;20058;-56
2022/04/09 08:51:49;;;;;;;11.32;3.47;;;6.50;99.90;;;;;;4989201;28;20485;-54
2022/04/09 08:54:17;;;;;;;9.57;2.42;;;6.50;99.90;;;;;;5005598;28;20068;-55
2022/04/09 08:56:44;;;;;;;13.75;3.30;;;6.60;99.90;;;;;;5018757;28;20061;-57
2022/04/09 08:59:11;;;;;;;18.63;3.33;;;6.70;99.90;;;;;;5010251;28;20092;-55
2022/04/09 09:01:38;;;;;;;10.25;3.05;;;6.70;99.90;;;;;;4988852;28;20061;-54
2022/04/09 09:04:05;;;;;;;12.85;3.35;;;6.80;99.90;;;;;;5005954;28;20507;-55
2022/04/09 09:06:39;;;;;;;6.75;3.17;;;6.90;99.90;;;;;;5005356;28;20054;-54
2022/04/09 09:09:06;;;;;;;6.70;2.70;;;6.80;99.90;;;;;;5005856;28;20050;-57
2022/04/09 09:11:47;;;;;;;11.90;3.75;;;7.00;99.90;;;;;;5005654;28;20832;-55
2022/04/09 09:14:34;;;;;;;10.07;3.05;;;7.20;99.90;;;;;;5005250;28;20528;-55
2022/04/09 09:17:01;;;;;;;5.50;2.50;;;7.20;99.90;;;;;;5004697;28;20056;-56
2022/04/09 09:19:47;;;;;;;11.50;1.95;;;7.30;99.90;;;;;;5005179;28;20093;-56
2022/04/09 09:22:15;;;;;;;13.60;2.35;;;7.30;99.90;;;;;;4988199;28;20085;-52
2022/04/09 09:24:41;;;;;;;14.98;2.78;;;7.40;99.90;;;;;;5004827;28;20739;-57
2022/04/09 09:27:08;;;;;;;5.70;1.67;;;7.50;99.90;;;;;;5008325;28;20065;-57
2022/04/09 09:29:36;;;;;;;10.55;3.47;;;7.60;99.90;;;;;;5010600;28;20085;-54
2022/04/09 09:32:04;;;;;;;17.20;2.60;;;7.70;99.90;;;;;;5006932;28;20054;-57
2022/04/09 09:34:32;;;;;;;12.70;2.10;;;8.10;99.60;;;;;;5005137;28;20088;-55
2022/04/09 09:36:59;;;;;;;4.88;1.88;;;8.40;99.10;;;;;;5005371;28;20085;-59
2022/04/09 09:39:26;;;;;;;11.50;2.08;;;8.70;99.90;;;;;;5007182;28;20060;-53
2022/04/09 09:42:03;;;;;;;8.43;2.88;;;8.90;99.90;;;;;;5004408;28;20053;-55
2022/04/09 09:44:34;;;;;;;9.90;1.88;;;8.80;96.50;;;;;;5004365;28;20054;-57
2022/04/09 09:47:07;;;;;;;7.30;2.22;;;9.00;98.90;;;;;;4984258;28;20053;-57
2022/04/09 09:49:37;;;;;;;6.70;1.50;;;9.20;99.00;;;;;;4987977;28;20165;-56
2022/04/09 09:52:11;;;;;;;9.40;2.42;;;9.40;96.50;;;;;;5004616;28;20042;-56
2022/04/09 09:54:59;;;;;;;4.10;1.83;;;9.60;95.20;;;;;;5004264;28;20084;-55
2022/04/09 09:57:29;;;;;;;11.52;1.70;;;9.80;95.30;;;;;;5004694;28;20141;-56
2022/04/09 09:59:57;;;;;;;7.15;1.50;;;10.10;97.70;;;;;;4987588;28;20120;-55
2022/04/09 10:02:30;;;;;;;14.68;2.17;;;10.10;93.90;;;;;;4988538;28;20060;-51
2022/04/09 10:04:57;;;;;;;9.18;1.65;;;10.20;97.40;;;;;;4987454;28;20479;-57
2022/04/09 10:07:26;;;;;;;10.10;1.60;;;10.40;96.10;;;;;;5004441;28;20054;-56
2022/04/09 10:09:53;;;;;;;9.35;1.58;;;10.20;96.00;;;;;;5004605;28;20107;-55
2022/04/09 10:12:23;;;;;;;4.35;1.33;;;9.70;94.80;;;;;;4987173;28;20110;-53
2022/04/09 10:14:55;;;;;;;8.88;1.25;;;9.50;95.20;;;;;;5004397;28;20054;-56
2022/04/09 10:17:22;;;;;;;5.85;1.20;;;9.40;93.20;;;;;;5004503;28;20056;-51
2022/04/09 10:19:56;;;;;;;5.45;1.58;;;9.50;92.50;;;;;;5004235;28;20150;-56
2022/04/09 10:22:23;;;;;;;;;;;9.60;94.20;;;;;;5005247;28;20049;-55
2022/04/09 10:24:50;;;;;;;4.80;1.48;;;9.70;91.70;;;;;;5004352;28;20017;-55
2022/04/09 10:27:40;;;;;;;7.15;1.40;;;9.80;92.90;;;;;;5007076;28;20093;-54
2022/04/09 10:30:22;;;;;;;8.45;1.38;;;9.70;92.30;;;;;;5002016;28;20057;-58
2022/04/09 10:32:53;;;;;;;17.25;1.67;;;9.50;91.90;;;;;;5003852;28;20078;-55
2022/04/09 10:35:24;;;;;;;6.85;1.48;;;9.30;92.10;;;;;;4987034;28;20053;-56
2022/04/09 10:38:15;;;;;;;6.93;1.10;;;9.30;92.10;;;;;;5003680;28;20156;-56
2022/04/09 10:40:55;;;;;;;8.27;1.45;;;9.30;91.70;;;;;;5004124;28;20271;-54
2022/04/09 10:43:25;;;;;;;4.35;1.27;;;9.30;93.40;;;;;;5002960;28;20062;-54
2022/04/09 10:46:00;;;;;;;6.55;1.58;;;9.30;94.10;;;;;;5003816;28;20462;-56
2022/04/09 10:48:32;;;;;;;6.32;2.65;;;9.40;92.40;;;;;;5002898;28;20524;-56
2022/04/09 10:51:02;;;;;;;7.88;1.55;;;9.30;91.50;;;;;;5004146;28;20563;-54
2022/04/09 10:53:30;;;;;;;9.23;1.08;;;9.20;92.70;;;;;;5004114;28;20178;-55
2022/04/09 10:56:20;;;;;;;5.55;1.35;;;9.30;94.20;;;;;;5012344;28;20053;-54
2022/04/09 10:59:29;;;;;;;7.30;1.52;;;9.30;91.10;;;;;;5003790;28;20331;-55
2022/04/09 11:01:56;;;;;;;8.35;1.67;;;9.20;89.10;;;;;;5004182;28;20073;-55
2022/04/09 11:04:34;;;;;;;4.87;1.27;;;9.30;92.40;;;;;;5004494;28;20049;-56
2022/04/09 11:07:21;;;;;;;4.40;0.98;;;9.50;86.70;;;;;;5004213;28;20279;-59
2022/04/09 11:09:58;;;;;;;21.85;3.05;;;9.60;89.90;;;;;;4993726;28;20311;-54
2022/04/09 11:12:28;;;;;;;4.00;0.98;;;9.60;89.90;;;;;;5003377;28;20064;-56
2022/04/09 11:14:59;;;;;;;4.95;1.05;;;9.80;80.10;;;;;;4986666;28;20053;-57
2022/04/09 11:17:27;;;;;;;1.00;0.60;;;9.90;85.70;;;;;;5003951;28;20045;-56
2022/04/09 11:19:54;;;;;;;4.35;0.75;;;9.90;76.60;;;;;;5003137;28;20489;-57
2022/04/09 11:22:21;;;;;;;6.70;1.02;;;9.90;76.00;;;;;;5003864;28;20085;-59
2022/04/09 11:24:47;;;;;;;9.32;1.17;;;10.10;77.30;;;;;;5003261;28;20138;-59
2022/04/09 11:27:14;;;;;;;3.55;0.70;;;10.30;81.60;;;;;;5003672;28;20149;-59
2022/04/09 11:29:42;;;;;;;4.82;0.98;;;10.10;71.30;;;;;;5002749;28;20133;-55
2022/04/09 11:32:19;;;;;;;2.58;1.05;;;10.10;79.20;;;;;;5003784;28;20064;-57
2022/04/09 11:34:58;;;;;;;6.95;1.15;;;10.30;72.80;;;;;;5003385;28;20464;-54
2022/04/09 11:37:32;;;;;;;6.45;1.48;;;10.30;72.20;;;;;;4986551;28;20103;-56
2022/04/09 11:40:05;;;;;;;18.48;1.85;;;10.20;75.60;;;;;;5003093;28;20493;-58
2022/04/09 11:42:45;;;;;;;3.75;1.27;;;10.40;74.10;;;;;;5002957;28;20091;-57
2022/04/09 11:45:23;;;;;;;6.25;3.00;;;10.40;73.10;;;;;;5003237;28;20088;-56
2022/04/09 11:47:51;;;;;;;8.05;1.08;;;10.60;72.60;;;;;;5003024;28;20058;-57
2022/04/09 11:50:18;;;;;;;4.35;1.25;;;10.60;74.80;;;;;;5002974;28;20141;-56
2022/04/09 11:52:45;;;;;;;7.55;2.08;;;10.70;79.70;;;;;;5001862;28;20513;-57
2022/04/09 11:55:14;;;;;;;4.65;1.50;;;10.70;76.20;;;;;;5002949;28;20587;-57
2022/04/09 11:57:48;;;;;;;3.05;1.20;;;10.70;74.30;;;;;;4985196;28;20082;-56
2022/04/09 12:00:15;;;;;;;6.70;1.00;;;10.70;70.70;;;;;;5004830;28;20142;-55
2022/04/09 12:02:42;;;;;;;3.90;1.15;;;10.80;81.80;;;;;;4985871;28;20050;-57
2022/04/09 12:05:10;;;;;;;3.33;1.27;;;10.90;73.90;;;;;;4972455;28;20065;-55
2022/04/09 12:07:46;;;;;;;6.28;1.17;;;11.00;74.10;;;;;;4983337;28;20084;-59
2022/04/09 12:10:26;;;;;;;5.90;1.45;;;10.80;69.80;;;;;;4995780;28;20145;-57
2022/04/09 12:13:00;;;;;;;4.75;1.67;;;10.60;70.10;;;;;;5005874;28;20054;-61
2022/04/09 12:15:29;;;;;;;5.55;1.10;;;10.50;72.80;;;;;;5006216;28;20514;-55
2022/04/09 12:17:56;;;;;;;5.97;1.13;;;10.40;71.90;;;;;;5005845;28;20082;-56
2022/04/09 12:20:34;;;;;;;4.93;0.88;;;10.60;79.80;;;;;;5005440;28;20053;-57
2022/04/09 12:23:01;;;;;;;3.88;1.38;;;10.70;74.50;;;;;;5006176;28;20098;-54
2022/04/09 12:25:40;;;;;;;3.60;0.70;;;10.80;74.60;;;;;;5006671;28;20053;-57
2022/04/09 12:28:20;;;;;;;4.68;0.90;;;10.90;70.90;;;;;;5006672;28;20088;-56
2022/04/09 12:30:47;;;;;;;5.72;1.17;;;11.10;70.80;;;;;;4998447;28;20078;-57
2022/04/09 12:33:14;;;;;;;5.22;0.95;;;11.30;70.80;;;;;;5005394;28;20072;-56
2022/04/09 12:35:41;;;;;;;3.30;0.75;;;11.40;72.60;;;;;;4984832;28;20055;-57
2022/04/09 12:38:08;;;;;;;4.35;1.17;;;11.20;69.70;;;;;;4997995;28;20140;-57
2022/04/09 12:40:35;;;;;;;4.07;0.95;;;10.90;70.30;;;;;;4985407;28;20155;-57
2022/04/09 12:43:03;;;;;;;6.93;1.30;;;11.00;72.70;;;;;;5004088;28;20100;-56
2022/04/09 12:45:35;;;;;;;1.80;0.80;;;10.80;72.10;;;;;;5004380;28;20149;-57
2022/04/09 12:48:06;;;;;;;3.80;1.00;;;11.00;71.10;;;;;;4984489;28;20081;-56
2022/04/09 12:50:34;;;;;;;2.28;0.80;;;11.00;67.80;;;;;;5004652;28;20041;-57
2022/04/09 12:53:02;;;;;;;2.28;0.80;;;11.20;64.60;;;;;;5005250;28;20157;-57
2022/04/09 12:55:32;;;;;;;3.50;0.80;;;11.40;70.20;;;;;;4997489;28;20086;-55
2022/04/09 12:58:02;;;;;;;3.47;0.73;;;11.40;64.20;;;;;;5003077;28;20046;-55
2022/04/09 13:00:32;;;;;;;5.63;1.10;;;11.30;64.90;;;;;;5006677;28;20049;-57